This is the latest recevied weather packets stored in our database for station/object KN4CI-1. If no packets are shown the sender has not sent any weather packets the latest 10 day(s).
| Time | Temp. | Humidity | Pressure | Rain* | Wind** | Luminosity | Snow |
|---|---|---|---|---|---|---|---|
| 1777076908 | 21.67° C | 19% | 1009.6 hPa | 0 mm | 0 m/s | - | - |
| 1777076608 | 21.67° C | 19% | 1009.6 hPa | 0 mm | 0 m/s | - | - |
| 1777074803 | 22.78° C | 16% | 1010.6 hPa | 0 mm | 0 m/s | - | - |
| 1777074503 | 22.78° C | 16% | 1010.6 hPa | 0 mm | 0 m/s | - | - |
| 1777073901 | 23.33° C | 16% | 1010.6 hPa | 0 mm | 0 m/s | - | - |
| 1777060055 | 28.33° C | 13% | 1011.6 hPa | 0 mm | 1.34 m/s, 206° | - | - |
| 1777051306 | 25.56° C | 15% | 1013.6 hPa | 0 mm | 1.79 m/s, 182° | - | - |
| 1777047986 | 24.44° C | 15% | 1013.6 hPa | 0 mm | 0 m/s | - | - |
| 1777047077 | 23.89° C | 15% | 1014.6 hPa | 0 mm | 1.34 m/s, 175° | - | - |
| 1777046777 | 23.89° C | 15% | 1013.6 hPa | 0 mm | 1.34 m/s, 263° | - | - |
| 1777046165 | 24.44° C | 15% | 1013.6 hPa | 0 mm | 1.34 m/s, 240° | - | - |
| 1777045865 | 23.89° C | 15% | 1013.6 hPa | 0 mm | 2.24 m/s, 249° | - | - |
| 1777044956 | 23.33° C | 15% | 1013.6 hPa | 0 mm | 0 m/s | - | - |
| 1777044656 | 23.33° C | 15% | 1013.6 hPa | 0 mm | 1.79 m/s, 208° | - | - |
| 1777042213 | 21.67° C | 22% | 1013.6 hPa | 0 mm | 1.34 m/s, 248° | - | - |
| 1777041603 | 21.11° C | 22% | 1013.6 hPa | 0 mm | 1.34 m/s, 277° | - | - |
| 1777040677 | 20.56° C | 24% | 1013.6 hPa | 0 mm | 1.34 m/s, 263° | - | - |
| 1777040378 | 20.56° C | 23% | 1013.6 hPa | 0 mm | 1.79 m/s, 215° | - | - |
| 1777037047 | 18.33° C | 39% | 1013.6 hPa | 0 mm | 1.34 m/s, 255° | - | - |
| 1777036746 | 18.33° C | 43% | 1013.6 hPa | 0 mm | 1.34 m/s, 252° | - | - |
| 1777036143 | 17.78° C | 44% | 1013.6 hPa | 0 mm | 0 m/s | - | - |
| 1777035543 | 17.22° C | 45% | 1013.6 hPa | 0 mm | 0 m/s | - | - |
| 1777034029 | 15.56° C | 47% | 1013.6 hPa | 0 mm | 0 m/s | - | - |
| 1777033729 | 15.56° C | 47% | 1013.6 hPa | 0 mm | 0 m/s | - | - |
| 1777033427 | 15° C | 48% | 1013.6 hPa | 0 mm | 0 m/s | - | - |
* Rain latest hour (hover to see other rain measurements)
** Current wind speed in m/s (hover to see current wind gust speed)